Time;durP1;ratioP1;P1;durP2;ratioP2;P2;SDS_P1;SDS_P2;PMS_P1;PMS_P2;Temp;Humidity;BMP_temperature;BMP_pressure;BME280_temperature;BME280_humidity;BME280_pressure;Samples;Min_cycle;Max_cycle;Signal;HPM_P1;HPM_P2
2022/12/23 00:01:26;;;;;;;6.80;4.00;;;;;;;-128.00;-1.00;-1.00;95599;1371;1004411;-33
2022/12/23 00:03:55;;;;;;;8.50;4.90;;;;;;;-128.00;-1.00;-1.00;95722;1371;1004942;-33
2022/12/23 00:06:21;;;;;;;8.80;5.50;;;;;;;-128.00;-1.00;-1.00;95723;1372;1004734;-35
2022/12/23 00:08:47;;;;;;;9.00;6.30;;;;;;;-128.00;-1.00;-1.00;95661;1371;1004912;-32
2022/12/23 00:11:16;;;;;;;4.90;4.30;;;;;;;-128.00;-1.00;-1.00;95840;1370;1004470;-35
2022/12/23 00:16:12;;;;;;;16.70;9.40;;;;;;;-128.00;-1.00;-1.00;95798;1371;1004221;-35
2022/12/23 00:18:40;;;;;;;12.50;7.40;;;;;;;-128.00;-1.00;-1.00;95766;1371;1004111;-35
2022/12/23 00:21:07;;;;;;;16.90;10.20;;;;;;;-128.00;-1.00;-1.00;95647;1371;1004359;-33
2022/12/23 00:23:33;;;;;;;12.90;8.80;;;;;;;-128.00;-1.00;-1.00;95718;1371;1004318;-33
2022/12/23 00:25:59;;;;;;;20.80;11.60;;;;;;;-128.00;-1.00;-1.00;95513;1371;1004335;-35
2022/12/23 00:28:25;;;;;;;15.40;10.70;;;;;;;-128.00;-1.00;-1.00;95803;1371;1005040;-34
2022/12/23 00:30:53;;;;;;;20.10;11.60;;;;;;;-128.00;-1.00;-1.00;95830;1371;1004714;-34
2022/12/23 00:33:21;;;;;;;19.60;11.30;;;;;;;-128.00;-1.00;-1.00;95547;1372;1004165;-32
2022/12/23 00:35:47;;;;;;;21.10;10.20;;;;;;;-128.00;-1.00;-1.00;95647;1371;1004537;-35
2022/12/23 00:38:13;;;;;;;21.90;15.00;;;;;;;-128.00;-1.00;-1.00;95591;1371;1004408;-35
2022/12/23 00:43:08;;;;;;;20.40;12.70;;;;;;;-128.00;-1.00;-1.00;95694;1371;1004935;-31
2022/12/23 00:45:34;;;;;;;25.70;12.30;;;;;;;-128.00;-1.00;-1.00;95736;1371;1003470;-32
2022/12/23 00:50:30;;;;;;;10.40;5.80;;;;;;;-128.00;-1.00;-1.00;95699;1372;1004788;-36
2022/12/23 00:52:56;;;;;;;14.20;10.60;;;;;;;-128.00;-1.00;-1.00;95721;1370;1004315;-33
2022/12/23 00:55:21;;;;;;;17.40;10.70;;;;;;;-128.00;-1.00;-1.00;95613;1372;1004530;-33
2022/12/23 00:57:47;;;;;;;18.30;11.50;;;;;;;-128.00;-1.00;-1.00;95638;1372;1005059;-33
2022/12/23 01:00:13;;;;;;;21.80;12.70;;;;;;;-128.00;-1.00;-1.00;95673;1372;1004283;-32
2022/12/23 01:07:41;;;;;;;12.50;8.90;;;;;;;-128.00;-1.00;-1.00;95723;1372;1003760;-33
2022/12/23 01:10:07;;;;;;;14.30;8.50;;;;;;;-128.00;-1.00;-1.00;95742;1372;1004658;-35
2022/12/23 01:12:33;;;;;;;14.70;9.00;;;;;;;-128.00;-1.00;-1.00;95691;1372;1005093;-33
2022/12/23 01:14:58;;;;;;;16.90;9.50;;;;;;;-128.00;-1.00;-1.00;95817;1372;1003793;-36
2022/12/23 01:17:24;;;;;;;19.20;11.40;;;;;;;-128.00;-1.00;-1.00;95771;1372;1004575;-36
2022/12/23 01:19:50;;;;;;;17.20;11.70;;;;;;;-128.00;-1.00;-1.00;95624;1372;1004676;-34
2022/12/23 01:22:16;;;;;;;14.80;8.10;;;;;;;-128.00;-1.00;-1.00;95678;1372;1005266;-34
2022/12/23 01:24:41;;;;;;;;;;;;;;;-128.00;-1.00;-1.00;95758;1372;1004605;-35
2022/12/23 01:27:07;;;;;;;18.50;11.30;;;;;;;-128.00;-1.00;-1.00;95709;1372;1004544;-35
2022/12/23 01:29:33;;;;;;;21.90;11.50;;;;;;;-128.00;-1.00;-1.00;95693;1372;1004362;-31
2022/12/23 01:31:59;;;;;;;18.00;12.00;;;;;;;-128.00;-1.00;-1.00;95575;1372;1004981;-32
2022/12/23 01:34:25;;;;;;;15.30;10.40;;;;;;;-128.00;-1.00;-1.00;95642;1372;1004738;-31
2022/12/23 01:36:50;;;;;;;15.50;9.70;;;;;;;-128.00;-1.00;-1.00;95777;1372;1004110;-35
2022/12/23 01:39:16;;;;;;;15.30;8.90;;;;;;;-128.00;-1.00;-1.00;95596;1372;1004927;-35
2022/12/23 01:44:35;;;;;;;14.30;7.50;;;;;;;-128.00;-1.00;-1.00;95686;1372;1004676;-34
2022/12/23 01:47:01;;;;;;;9.60;6.10;;;;;;;-128.00;-1.00;-1.00;95770;1372;1004927;-35
2022/12/23 01:49:26;;;;;;;13.50;8.60;;;;;;;-128.00;-1.00;-1.00;95791;1372;1004739;-32
2022/12/23 01:51:53;;;;;;;6.70;4.10;;;;;;;-128.00;-1.00;-1.00;95750;1371;1004852;-32
2022/12/23 01:54:19;;;;;;;15.10;7.70;;;;;;;-128.00;-1.00;-1.00;95813;1372;1004672;-31
2022/12/23 01:56:45;;;;;;;18.10;8.50;;;;;;;-128.00;-1.00;-1.00;95802;1370;1005050;-35
2022/12/23 02:04:11;;;;;;;15.30;9.80;;;;;;;-128.00;-1.00;-1.00;95719;1372;1004234;-35
2022/12/23 02:09:16;;;;;;;16.30;9.50;;;;;;;-128.00;-1.00;-1.00;95767;1372;1003681;-32
2022/12/23 02:11:59;;;;;;;15.30;9.60;;;;;;;-128.00;-1.00;-1.00;95641;1370;1004636;-32
2022/12/23 02:17:42;;;;;;;18.20;9.60;;;;;;;-128.00;-1.00;-1.00;95649;1372;1005110;-32
2022/12/23 02:20:32;;;;;;;18.10;10.30;;;;;;;-128.00;-1.00;-1.00;95667;1372;1004753;-35
2022/12/23 02:23:21;;;;;;;20.50;8.60;;;;;;;-128.00;-1.00;-1.00;95783;1372;1004817;-32
2022/12/23 02:26:11;;;;;;;12.70;8.00;;;;;;;-128.00;-1.00;-1.00;95639;1372;1003835;-32
2022/12/23 02:29:06;;;;;;;11.30;6.20;;;;;;;-128.00;-1.00;-1.00;95634;1372;1004675;-35
2022/12/23 02:31:48;;;;;;;18.50;8.70;;;;;;;-128.00;-1.00;-1.00;95725;1372;1004769;-37
2022/12/23 02:34:35;;;;;;;18.70;10.70;;;;;;;-128.00;-1.00;-1.00;95690;1372;1004634;-32
2022/12/23 02:37:07;;;;;;;11.30;6.70;;;;;;;-128.00;-1.00;-1.00;95696;1357;1004563;-32
2022/12/23 02:39:50;;;;;;;17.10;8.00;;;;;;;-128.00;-1.00;-1.00;95627;1372;1004269;-35
2022/12/23 02:42:18;;;;;;;15.10;8.80;;;;;;;-128.00;-1.00;-1.00;95658;1372;1004840;-35
2022/12/23 02:44:53;;;;;;;13.20;9.40;;;;;;;-128.00;-1.00;-1.00;95620;1372;1004562;-35
2022/12/23 02:47:20;;;;;;;25.20;11.80;;;;;;;-128.00;-1.00;-1.00;95718;1372;1003614;-35
2022/12/23 02:49:50;;;;;;;12.90;8.30;;;;;;;-128.00;-1.00;-1.00;95815;1372;1004948;-32
2022/12/23 02:52:17;;;;;;;19.10;8.30;;;;;;;-128.00;-1.00;-1.00;95673;1372;1003919;-31
2022/12/23 02:54:52;;;;;;;18.70;9.40;;;;;;;-128.00;-1.00;-1.00;95786;1372;1004278;-35
2022/12/23 02:57:20;;;;;;;28.70;12.30;;;;;;;-128.00;-1.00;-1.00;95623;1372;1005083;-35
2022/12/23 02:59:47;;;;;;;12.70;8.50;;;;;;;-128.00;-1.00;-1.00;95749;1372;1004720;-32
2022/12/23 03:02:13;;;;;;;14.80;9.90;;;;;;;-128.00;-1.00;-1.00;95745;1372;1004457;-33
2022/12/23 03:04:40;;;;;;;18.10;10.50;;;;;;;-128.00;-1.00;-1.00;95614;1372;1004506;-33
2022/12/23 03:07:10;;;;;;;15.70;9.50;;;;;;;-128.00;-1.00;-1.00;95684;1355;1004628;-36
2022/12/23 03:09:46;;;;;;;22.00;11.00;;;;;;;-128.00;-1.00;-1.00;95714;1372;1004201;-34
2022/12/23 03:12:36;;;;;;;23.20;14.30;;;;;;;-128.00;-1.00;-1.00;95647;1372;1003919;-32
2022/12/23 03:15:11;;;;;;;17.50;11.10;;;;;;;-128.00;-1.00;-1.00;95765;1372;1004184;-32
2022/12/23 03:17:55;;;;;;;22.00;11.70;;;;;;;-128.00;-1.00;-1.00;95789;1372;1004273;-35
2022/12/23 03:20:27;;;;;;;16.20;11.00;;;;;;;-128.00;-1.00;-1.00;95766;1372;1004560;-33
2022/12/23 03:23:04;;;;;;;18.10;9.80;;;;;;;-128.00;-1.00;-1.00;95659;1372;1004182;-33
2022/12/23 03:25:37;;;;;;;17.10;11.00;;;;;;;-128.00;-1.00;-1.00;95683;1372;1004969;-34
2022/12/23 03:28:15;;;;;;;18.10;12.80;;;;;;;-128.00;-1.00;-1.00;95721;1372;1004118;-34
2022/12/23 03:30:42;;;;;;;20.60;11.40;;;;;;;-128.00;-1.00;-1.00;95593;1372;1004255;-34
2022/12/23 03:33:14;;;;;;;17.50;10.90;;;;;;;-128.00;-1.00;-1.00;95686;1372;1005166;-34
2022/12/23 03:35:44;;;;;;;20.00;10.00;;;;;;;-128.00;-1.00;-1.00;95613;1372;1004731;-31
2022/12/23 03:38:10;;;;;;;23.30;12.10;;;;;;;-128.00;-1.00;-1.00;95600;1372;1004833;-31
2022/12/23 03:40:52;;;;;;;18.00;10.90;;;;;;;-128.00;-1.00;-1.00;95645;1372;1003966;-34
2022/12/23 03:43:35;;;;;;;20.70;10.20;;;;;;;-128.00;-1.00;-1.00;95695;1372;1004949;-34
2022/12/23 03:46:09;;;;;;;15.60;9.60;;;;;;;-128.00;-1.00;-1.00;95665;1372;1004554;-34
2022/12/23 03:48:41;;;;;;;16.70;9.90;;;;;;;-128.00;-1.00;-1.00;95655;1372;1004874;-34
2022/12/23 03:51:10;;;;;;;10.10;7.10;;;;;;;-128.00;-1.00;-1.00;95726;1372;1004007;-32
2022/12/23 03:53:38;;;;;;;14.40;9.80;;;;;;;-128.00;-1.00;-1.00;95750;1370;1004721;-35
2022/12/23 03:56:06;;;;;;;4.10;2.30;;;;;;;-128.00;-1.00;-1.00;95853;1371;1004696;-31
2022/12/23 03:58:38;;;;;;;7.00;5.00;;;;;;;-128.00;-1.00;-1.00;95795;1372;1004232;-31
2022/12/23 04:01:15;;;;;;;10.90;5.90;;;;;;;-128.00;-1.00;-1.00;95603;1372;1004471;-34
2022/12/23 04:03:48;;;;;;;13.60;7.80;;;;;;;-128.00;-1.00;-1.00;95614;1372;1004516;-34
2022/12/23 04:06:14;;;;;;;14.80;9.60;;;;;;;-128.00;-1.00;-1.00;95621;1372;1005146;-31
2022/12/23 04:08:40;;;;;;;13.20;8.20;;;;;;;-128.00;-1.00;-1.00;95760;1372;1005469;-31
2022/12/23 04:11:06;;;;;;;12.40;7.20;;;;;;;-128.00;-1.00;-1.00;95702;1372;1004617;-34
2022/12/23 04:13:32;;;;;;;16.10;8.90;;;;;;;-128.00;-1.00;-1.00;95633;1372;1004529;-36
2022/12/23 04:15:58;;;;;;;20.90;9.70;;;;;;;-128.00;-1.00;-1.00;95777;1372;1005222;-31
2022/12/23 04:18:24;;;;;;;16.90;9.20;;;;;;;-128.00;-1.00;-1.00;95793;1372;1004395;-33
2022/12/23 04:20:49;;;;;;;11.80;5.90;;;;;;;-128.00;-1.00;-1.00;95680;1372;1004383;-32
2022/12/23 04:23:15;;;;;;;15.80;8.10;;;;;;;-128.00;-1.00;-1.00;95812;1372;1004993;-32
2022/12/23 04:25:41;;;;;;;21.90;11.00;;;;;;;-128.00;-1.00;-1.00;95752;1372;1005044;-32
2022/12/23 04:28:07;;;;;;;22.40;12.10;;;;;;;-128.00;-1.00;-1.00;95699;1372;1004726;-32
2022/12/23 04:30:33;;;;;;;17.00;9.90;;;;;;;-128.00;-1.00;-1.00;95662;1372;1004696;-30
2022/12/23 04:32:58;;;;;;;19.90;12.40;;;;;;;-128.00;-1.00;-1.00;95692;1371;1004862;-33
2022/12/23 04:35:24;;;;;;;28.40;11.70;;;;;;;-128.00;-1.00;-1.00;95599;1372;1003701;-33
2022/12/23 05:15:05;;;;;;;17.30;11.30;;;;;;;2.78;100.00;98563.52;99267;1371;557933;-32
2022/12/23 05:17:31;;;;;;;18.70;9.20;;;;;;;2.85;100.00;98544.98;99130;1369;409938;-32
2022/12/23 05:19:57;;;;;;;21.30;13.30;;;;;;;-75.66;39.40;39414.43;97492;1356;1003019;-32
2022/12/23 05:22:23;;;;;;;22.30;14.00;;;;;;;-128.00;-1.00;-1.00;96206;1370;1003483;-34
2022/12/23 05:24:49;;;;;;;16.70;11.80;;;;;;;-128.00;-1.00;-1.00;96219;1370;1004400;-35
2022/12/23 05:27:15;;;;;;;18.30;11.40;;;;;;;-128.00;-1.00;-1.00;96174;1370;1002947;-34
2022/12/23 05:29:41;;;;;;;18.90;11.60;;;;;;;-128.00;-1.00;-1.00;96201;1370;1004548;-35
2022/12/23 05:32:07;;;;;;;24.00;13.10;;;;;;;-128.00;-1.00;-1.00;96217;1369;1005086;-34
2022/12/23 05:34:32;;;;;;;21.30;12.60;;;;;;;-128.00;-1.00;-1.00;96233;1369;1002635;-33
2022/12/23 05:36:58;;;;;;;24.70;12.80;;;;;;;-128.00;-1.00;-1.00;96224;1370;1002760;-35
2022/12/23 05:39:24;;;;;;;21.00;11.80;;;;;;;-128.00;-1.00;-1.00;96168;1370;1003520;-34
2022/12/23 05:41:50;;;;;;;18.10;11.10;;;;;;;-128.00;-1.00;-1.00;96151;1369;1003318;-32
2022/12/23 05:44:15;;;;;;;24.90;13.40;;;;;;;-128.00;-1.00;-1.00;96195;1370;1003570;-32
2022/12/23 05:46:41;;;;;;;19.80;10.80;;;;;;;-128.00;-1.00;-1.00;96192;1370;1005142;-32
2022/12/23 05:49:07;;;;;;;23.30;13.70;;;;;;;-128.00;-1.00;-1.00;96147;1370;1005350;-34
2022/12/23 05:51:32;;;;;;;16.20;10.20;;;;;;;-128.00;-1.00;-1.00;96190;1370;1003919;-35
2022/12/23 05:53:58;;;;;;;26.40;14.20;;;;;;;-128.00;-1.00;-1.00;96077;1371;1003694;-32
2022/12/23 05:56:24;;;;;;;27.80;13.40;;;;;;;-128.00;-1.00;-1.00;96224;1370;1002713;-31
2022/12/23 05:58:50;;;;;;;20.40;10.90;;;;;;;-128.00;-1.00;-1.00;96227;1370;1004565;-31
2022/12/23 06:01:15;;;;;;;23.80;13.40;;;;;;;-128.00;-1.00;-1.00;96170;1370;1003156;-35
2022/12/23 06:03:42;;;;;;;24.50;13.50;;;;;;;-128.00;-1.00;-1.00;96182;1370;1004151;-32
2022/12/23 06:06:07;;;;;;;22.00;10.60;;;;;;;-128.00;-1.00;-1.00;96210;1370;1002752;-31
2022/12/23 06:08:33;;;;;;;27.50;15.00;;;;;;;-128.00;-1.00;-1.00;96226;1370;1002770;-32
2022/12/23 06:10:59;;;;;;;23.90;12.30;;;;;;;-128.00;-1.00;-1.00;96234;1369;1004248;-31
2022/12/23 06:13:25;;;;;;;30.90;14.30;;;;;;;-128.00;-1.00;-1.00;96130;1369;1003499;-35
2022/12/23 06:15:51;;;;;;;21.60;11.70;;;;;;;-128.00;-1.00;-1.00;96134;1370;1003055;-35
2022/12/23 06:18:17;;;;;;;45.70;16.00;;;;;;;-128.00;-1.00;-1.00;96209;1369;1005184;-35
2022/12/23 06:20:46;;;;;;;22.80;11.40;;;;;;;-128.00;-1.00;-1.00;96089;1370;1002771;-36
2022/12/23 06:23:12;;;;;;;34.80;16.60;;;;;;;-128.00;-1.00;-1.00;96104;1371;1004948;-31
2022/12/23 06:25:38;;;;;;;28.70;14.00;;;;;;;-128.00;-1.00;-1.00;96153;1370;1003366;-35
2022/12/23 06:28:06;;;;;;;31.00;13.40;;;;;;;-128.00;-1.00;-1.00;96118;1370;1003706;-35
2022/12/23 06:30:32;;;;;;;32.40;13.80;;;;;;;-128.00;-1.00;-1.00;96120;1370;1003735;-31
2022/12/23 06:32:58;;;;;;;31.20;14.90;;;;;;;-128.00;-1.00;-1.00;96144;1370;1003825;-35
2022/12/23 06:35:24;;;;;;;25.90;14.10;;;;;;;-128.00;-1.00;-1.00;96068;1370;1003629;-32
2022/12/23 06:37:51;;;;;;;;;;;;;;;-128.00;-1.00;-1.00;96131;1369;1003076;-31
2022/12/23 06:40:17;;;;;;;27.70;12.30;;;;;;;-128.00;-1.00;-1.00;96095;1369;1003183;-36
2022/12/23 06:42:43;;;;;;;25.00;13.00;;;;;;;-128.00;-1.00;-1.00;96171;1370;1003122;-36
2022/12/23 06:45:09;;;;;;;27.30;12.90;;;;;;;-128.00;-1.00;-1.00;96130;1370;1004125;-35
2022/12/23 06:47:34;;;;;;;32.30;18.00;;;;;;;-128.00;-1.00;-1.00;96083;1370;1004363;-34
2022/12/23 06:50:00;;;;;;;28.80;13.80;;;;;;;-128.00;-1.00;-1.00;96183;1370;1004150;-34
2022/12/23 06:52:26;;;;;;;14.50;8.50;;;;;;;-128.00;-1.00;-1.00;96163;1369;1002837;-31
2022/12/23 06:54:52;;;;;;;30.00;15.20;;;;;;;-128.00;-1.00;-1.00;96152;1370;1003377;-31
2022/12/23 06:57:17;;;;;;;35.90;13.20;;;;;;;-128.00;-1.00;-1.00;96051;1370;1003153;-31
2022/12/23 06:59:43;;;;;;;22.30;12.30;;;;;;;-128.00;-1.00;-1.00;96096;1370;1005339;-30
2022/12/23 07:02:10;;;;;;;36.90;18.30;;;;;;;-128.00;-1.00;-1.00;96050;1369;1004278;-30
2022/12/23 07:04:36;;;;;;;30.20;16.00;;;;;;;-128.00;-1.00;-1.00;96172;1369;1002880;-30
2022/12/23 07:07:01;;;;;;;29.00;15.60;;;;;;;-128.00;-1.00;-1.00;96142;1369;1002597;-31
2022/12/23 07:09:27;;;;;;;28.80;14.10;;;;;;;-128.00;-1.00;-1.00;96142;1370;1002868;-30
2022/12/23 07:11:53;;;;;;;28.60;14.80;;;;;;;-128.00;-1.00;-1.00;96139;1370;1003088;-33
2022/12/23 07:14:19;;;;;;;33.50;14.50;;;;;;;-128.00;-1.00;-1.00;96040;1370;1004372;-31
2022/12/23 07:16:45;;;;;;;30.20;14.40;;;;;;;-128.00;-1.00;-1.00;96110;1370;1004688;-34
2022/12/23 07:19:11;;;;;;;23.10;12.50;;;;;;;-128.00;-1.00;-1.00;96055;1370;1004362;-31
2022/12/23 07:21:37;;;;;;;24.90;12.80;;;;;;;-128.00;-1.00;-1.00;96182;1369;1004046;-34
2022/12/23 07:24:04;;;;;;;30.10;15.20;;;;;;;-128.00;-1.00;-1.00;96093;1370;1004080;-30
2022/12/23 07:26:30;;;;;;;33.50;16.50;;;;;;;-128.00;-1.00;-1.00;96091;1370;1003497;-31
2022/12/23 07:28:55;;;;;;;33.90;15.20;;;;;;;-128.00;-1.00;-1.00;96031;1371;1002555;-33
2022/12/23 07:31:21;;;;;;;31.40;15.60;;;;;;;-128.00;-1.00;-1.00;96149;1370;1003243;-35
2022/12/23 07:33:47;;;;;;;34.60;12.00;;;;;;;-128.00;-1.00;-1.00;96131;1370;1003536;-31
2022/12/23 07:36:13;;;;;;;34.60;14.00;;;;;;;-128.00;-1.00;-1.00;96126;1370;1005170;-31
2022/12/23 07:38:39;;;;;;;28.00;13.80;;;;;;;-128.00;-1.00;-1.00;95712;1371;1003164;-31
2022/12/23 07:41:05;;;;;;;35.30;17.60;;;;;;;-128.00;-1.00;-1.00;96111;1369;1004847;-32
2022/12/23 07:43:30;;;;;;;21.40;10.30;;;;;;;-128.00;-1.00;-1.00;96131;1370;1002714;-31
2022/12/23 07:45:56;;;;;;;26.10;14.50;;;;;;;-128.00;-1.00;-1.00;96172;1370;1003405;-31
2022/12/23 07:48:22;;;;;;;30.80;16.40;;;;;;;-128.00;-1.00;-1.00;96103;1370;1004611;-31
2022/12/23 07:50:48;;;;;;;22.20;10.90;;;;;;;-128.00;-1.00;-1.00;96140;1370;1005163;-31
2022/12/23 07:53:13;;;;;;;32.40;14.70;;;;;;;-128.00;-1.00;-1.00;96175;1370;1003264;-35
2022/12/23 07:55:39;;;;;;;31.70;16.60;;;;;;;-128.00;-1.00;-1.00;96030;1371;1004347;-38
2022/12/23 07:58:05;;;;;;;25.40;14.20;;;;;;;-128.00;-1.00;-1.00;96100;1370;1004390;-31
2022/12/23 08:00:31;;;;;;;35.20;18.50;;;;;;;-128.00;-1.00;-1.00;96064;1369;1003802;-34
2022/12/23 08:02:57;;;;;;;32.70;16.00;;;;;;;-128.00;-1.00;-1.00;96124;1370;1004412;-31
2022/12/23 08:05:23;;;;;;;26.20;13.90;;;;;;;-128.00;-1.00;-1.00;96136;1370;1003173;-34
2022/12/23 08:07:48;;;;;;;27.90;14.00;;;;;;;-128.00;-1.00;-1.00;96090;1370;1003571;-34
2022/12/23 08:10:14;;;;;;;29.70;16.40;;;;;;;-128.00;-1.00;-1.00;96138;1370;1003216;-34
2022/12/23 08:12:40;;;;;;;24.60;11.00;;;;;;;-128.00;-1.00;-1.00;96188;1370;1004434;-34
2022/12/23 08:15:07;;;;;;;23.10;11.50;;;;;;;-128.00;-1.00;-1.00;95730;1370;1002834;-34
2022/12/23 08:17:33;;;;;;;22.30;12.40;;;;;;;-128.00;-1.00;-1.00;96204;1369;1003054;-37
2022/12/23 08:19:58;;;;;;;25.30;16.10;;;;;;;-128.00;-1.00;-1.00;96211;1370;1003174;-36
2022/12/23 08:22:24;;;;;;;27.20;13.70;;;;;;;-128.00;-1.00;-1.00;95750;1370;1003414;-31
2022/12/23 08:24:51;;;;;;;21.10;11.00;;;;;;;-128.00;-1.00;-1.00;96091;1370;1004354;-36
2022/12/23 08:27:17;;;;;;;27.90;13.60;;;;;;;-128.00;-1.00;-1.00;96197;1370;1003658;-33
2022/12/23 08:29:42;;;;;;;26.60;15.00;;;;;;;-128.00;-1.00;-1.00;96150;1370;1004477;-34
2022/12/23 08:32:08;;;;;;;38.90;14.00;;;;;;;-128.00;-1.00;-1.00;96107;1369;1004064;-31
2022/12/23 08:34:34;;;;;;;21.10;10.60;;;;;;;-128.00;-1.00;-1.00;96157;1369;1002951;-35
2022/12/23 08:37:00;;;;;;;31.10;15.00;;;;;;;-128.00;-1.00;-1.00;96168;1369;1002836;-32
2022/12/23 08:39:26;;;;;;;28.40;14.80;;;;;;;-128.00;-1.00;-1.00;96256;1370;1003232;-37
2022/12/23 08:41:52;;;;;;;29.80;14.30;;;;;;;-128.00;-1.00;-1.00;96128;1369;1004338;-34
2022/12/23 08:44:19;;;;;;;24.90;11.30;;;;;;;-128.00;-1.00;-1.00;95979;1370;1002609;-33
2022/12/23 08:46:44;;;;;;;26.00;11.20;;;;;;;-128.00;-1.00;-1.00;96167;1370;1002885;-36
2022/12/23 08:49:10;;;;;;;29.20;14.80;;;;;;;-128.00;-1.00;-1.00;96156;1370;1004238;-33
2022/12/23 08:51:36;;;;;;;27.00;13.50;;;;;;;-128.00;-1.00;-1.00;96144;1370;1005309;-36
2022/12/23 08:54:02;;;;;;;23.50;13.70;;;;;;;-128.00;-1.00;-1.00;96077;1370;1004624;-36
2022/12/23 08:56:30;;;;;;;28.90;14.70;;;;;;;-128.00;-1.00;-1.00;96218;1369;1002646;-35
2022/12/23 08:58:56;;;;;;;28.90;14.10;;;;;;;-128.00;-1.00;-1.00;96181;1370;1003785;-36
2022/12/23 09:01:23;;;;;;;21.50;12.90;;;;;;;-128.00;-1.00;-1.00;96133;1370;1003319;-37
2022/12/23 09:03:49;;;;;;;23.20;12.00;;;;;;;-128.00;-1.00;-1.00;96196;1370;1004548;-33
2022/12/23 09:06:18;;;;;;;23.50;10.00;;;;;;;-128.00;-1.00;-1.00;96167;1370;1003372;-36
2022/12/23 09:08:44;;;;;;;23.20;11.70;;;;;;;-128.00;-1.00;-1.00;96142;1370;1002840;-36
2022/12/23 09:11:10;;;;;;;27.10;13.90;;;;;;;-128.00;-1.00;-1.00;96202;1370;1003969;-32
2022/12/23 09:13:36;;;;;;;26.20;13.20;;;;;;;-128.00;-1.00;-1.00;96084;1370;1002933;-33
2022/12/23 09:16:02;;;;;;;58.20;26.20;;;;;;;-128.00;-1.00;-1.00;96094;1369;1003453;-33
2022/12/23 09:18:28;;;;;;;26.00;12.60;;;;;;;-128.00;-1.00;-1.00;96136;1369;1003761;-36
2022/12/23 09:20:58;;;;;;;24.00;11.90;;;;;;;-128.00;-1.00;-1.00;96090;1370;1005175;-35
2022/12/23 09:23:24;;;;;;;28.00;14.00;;;;;;;-128.00;-1.00;-1.00;96230;1370;1003853;-36
2022/12/23 09:25:50;;;;;;;33.00;15.20;;;;;;;-128.00;-1.00;-1.00;96181;1369;1003801;-34
2022/12/23 09:28:16;;;;;;;20.80;11.40;;;;;;;-128.00;-1.00;-1.00;96166;1370;1004530;-33
2022/12/23 09:30:41;;;;;;;18.90;12.10;;;;;;;-128.00;-1.00;-1.00;96170;1369;1003327;-33
2022/12/23 09:33:07;;;;;;;28.90;13.50;;;;;;;-128.00;-1.00;-1.00;96104;1369;1004325;-33
2022/12/23 09:35:33;;;;;;;26.10;12.70;;;;;;;-128.00;-1.00;-1.00;96128;1370;1002983;-34
2022/12/23 09:37:59;;;;;;;21.70;11.70;;;;;;;-128.00;-1.00;-1.00;96122;1370;1004098;-33
2022/12/23 09:40:26;;;;;;;21.60;11.50;;;;;;;-128.00;-1.00;-1.00;96070;1371;1003542;-33
2022/12/23 09:43:24;;;;;;;22.30;12.70;;;;;;;-128.00;-1.00;-1.00;96145;1370;1004170;-36
2022/12/23 09:46:12;;;;;;;18.70;9.90;;;;;;;-128.00;-1.00;-1.00;96149;1370;1003024;-34
2022/12/23 09:48:44;;;;;;;18.40;9.70;;;;;;;-128.00;-1.00;-1.00;96121;1369;1005070;-36
2022/12/23 09:51:11;;;;;;;13.40;8.10;;;;;;;-128.00;-1.00;-1.00;96054;1370;1003248;-37
2022/12/23 09:53:48;;;;;;;19.40;9.40;;;;;;;-128.00;-1.00;-1.00;96130;1370;1003489;-32
2022/12/23 09:56:19;;;;;;;20.50;10.90;;;;;;;-128.00;-1.00;-1.00;96002;1370;1003095;-35
2022/12/23 09:58:53;;;;;;;17.80;8.00;;;;;;;-128.00;-1.00;-1.00;96087;1370;1003175;-35
2022/12/23 10:01:30;;;;;;;11.70;7.40;;;;;;;-128.00;-1.00;-1.00;96081;1370;1003441;-32
2022/12/23 10:04:19;;;;;;;14.90;9.50;;;;;;;-128.00;-1.00;-1.00;96115;1370;1003424;-32
2022/12/23 10:06:48;;;;;;;11.50;7.20;;;;;;;-128.00;-1.00;-1.00;96101;1370;1004336;-35
2022/12/23 10:09:13;;;;;;;21.40;9.10;;;;;;;-128.00;-1.00;-1.00;96158;1370;1003523;-32
2022/12/23 10:11:41;;;;;;;15.60;7.20;;;;;;;-128.00;-1.00;-1.00;96056;1370;1003613;-32
2022/12/23 10:14:25;;;;;;;17.00;9.20;;;;;;;-128.00;-1.00;-1.00;96088;1370;1003158;-34
2022/12/23 10:17:09;;;;;;;11.70;8.00;;;;;;;-128.00;-1.00;-1.00;96126;1370;1003565;-35
2022/12/23 10:19:43;;;;;;;9.60;6.10;;;;;;;-128.00;-1.00;-1.00;96095;1370;1002957;-32
2022/12/23 10:22:19;;;;;;;8.60;6.10;;;;;;;-128.00;-1.00;-1.00;96120;1369;1004385;-35
2022/12/23 10:24:45;;;;;;;12.20;7.80;;;;;;;-128.00;-1.00;-1.00;96159;1370;1004362;-35
2022/12/23 10:27:21;;;;;;;16.80;7.20;;;;;;;-128.00;-1.00;-1.00;96093;1370;1002749;-32
2022/12/23 10:29:47;;;;;;;18.50;8.80;;;;;;;-128.00;-1.00;-1.00;96172;1370;1002988;-32
2022/12/23 10:32:39;;;;;;;16.60;6.10;;;;;;;-128.00;-1.00;-1.00;96109;1370;1003717;-32
2022/12/23 10:35:28;;;;;;;14.50;7.10;;;;;;;-128.00;-1.00;-1.00;95815;1370;1003445;-40
2022/12/23 10:37:56;;;;;;;10.70;6.50;;;;;;;-128.00;-1.00;-1.00;96078;1370;1002902;-33
2022/12/23 10:40:27;;;;;;;14.30;8.00;;;;;;;-128.00;-1.00;-1.00;96141;1370;1003466;-33
2022/12/23 10:42:57;;;;;;;14.40;7.20;;;;;;;-128.00;-1.00;-1.00;96148;1370;1003132;-36
2022/12/23 10:45:34;;;;;;;16.90;8.10;;;;;;;-128.00;-1.00;-1.00;95744;1370;1003305;-36
2022/12/23 10:48:28;;;;;;;11.70;7.60;;;;;;;-128.00;-1.00;-1.00;96053;1369;1002991;-33
2022/12/23 10:51:13;;;;;;;11.30;7.60;;;;;;;-128.00;-1.00;-1.00;96134;1370;1002483;-32
2022/12/23 10:53:52;;;;;;;10.00;5.70;;;;;;;-128.00;-1.00;-1.00;96307;1370;1003857;-33
2022/12/23 10:56:18;;;;;;;10.00;5.70;;;;;;;-128.00;-1.00;-1.00;96241;1370;1003182;-36
2022/12/23 10:58:45;;;;;;;9.70;6.70;;;;;;;-128.00;-1.00;-1.00;95774;1370;1003106;-36
2022/12/23 11:01:14;;;;;;;8.80;5.60;;;;;;;-128.00;-1.00;-1.00;96073;1370;1003811;-33
2022/12/23 11:03:43;;;;;;;18.10;7.20;;;;;;;-128.00;-1.00;-1.00;96097;1370;1004499;-33
2022/12/23 11:44:39;;;;;;;13.40;7.90;;;;;;;5.49;100.00;98423.45;99065;1371;558064;-36
2022/12/23 11:47:25;;;;;;;8.70;6.20;;;;;;;5.55;100.00;98427.01;98898;1371;459011;-37
2022/12/23 11:49:53;;;;;;;20.70;9.80;;;;;;;5.49;100.00;98423.63;99138;1373;22804;-34
2022/12/23 11:52:20;;;;;;;14.60;5.10;;;;;;;5.43;100.00;98423.23;99044;1363;24828;-34
2022/12/23 11:54:51;;;;;;;18.20;8.70;;;;;;;5.42;100.00;98425.52;99112;1372;24274;-31
2022/12/23 11:57:19;;;;;;;8.50;6.10;;;;;;;5.40;100.00;98427.55;98952;1364;22595;-32
2022/12/23 12:02:20;;;;;;;12.30;6.30;;;;;;;5.41;100.00;98428.14;99019;1369;24446;-36
2022/12/23 12:04:53;;;;;;;17.20;8.80;;;;;;;5.44;100.00;98427.75;99105;1363;22835;-33
2022/12/23 12:07:18;;;;;;;19.90;10.30;;;;;;;5.49;100.00;98427.00;96589;1363;1003091;-33
2022/12/23 12:09:44;;;;;;;21.00;7.20;;;;;;;5.54;100.00;98433.89;94456;1346;1002910;-35
2022/12/23 12:12:15;;;;;;;18.40;7.70;;;;;;;5.55;100.00;98433.83;98487;1367;1002959;-33
2022/12/23 12:14:50;;;;;;;11.70;7.40;;;;;;;5.53;100.00;98432.69;99065;1360;22694;-35
2022/12/23 12:17:39;;;;;;;7.10;4.90;;;;;;;5.60;100.00;98438.45;99174;1373;22610;-32
2022/12/23 12:20:30;;;;;;;17.90;8.80;;;;;;;5.59;100.00;98438.37;99073;1369;22838;-33
2022/12/23 12:23:20;;;;;;;24.40;9.80;;;;;;;5.58;100.00;98440.98;99163;1360;24360;-36
2022/12/23 12:25:49;;;;;;;15.00;6.90;;;;;;;5.65;100.00;98441.55;99074;1363;23198;-33
2022/12/23 12:28:22;;;;;;;16.20;9.20;;;;;;;5.75;100.00;98442.09;99158;1360;23200;-35
2022/12/23 12:30:49;;;;;;;;;;;;;;;5.82;100.00;98434.17;99133;1370;23232;-32
2022/12/23 12:33:22;;;;;;;3.80;1.80;;;;;;;5.83;100.00;98426.19;99233;1372;22993;-33
2022/12/23 12:35:54;;;;;;;16.40;7.20;;;;;;;6.00;100.00;98418.57;99162;1372;22603;-36
2022/12/23 12:38:25;;;;;;;12.10;8.50;;;;;;;5.89;100.00;98407.62;99146;1373;22864;-34
2022/12/23 12:40:54;;;;;;;13.10;8.30;;;;;;;5.87;100.00;98414.02;99161;1360;24257;-34
2022/12/23 12:43:29;;;;;;;17.80;9.60;;;;;;;5.84;100.00;98410.48;99170;1368;25486;-34
2022/12/23 12:46:19;;;;;;;13.20;7.60;;;;;;;5.84;100.00;98411.13;99084;1372;22610;-33
2022/12/23 12:48:53;;;;;;;27.40;7.80;;;;;;;5.90;100.00;98417.84;99090;1370;23000;-33
2022/12/23 12:51:39;;;;;;;16.20;9.00;;;;;;;5.94;100.00;98409.42;99054;1362;24354;-36
2022/12/23 12:54:26;;;;;;;11.50;7.10;;;;;;;5.80;100.00;98408.72;99089;1366;22719;-33
2022/12/23 12:56:54;;;;;;;16.20;8.40;;;;;;;5.91;100.00;98419.52;99114;1363;22691;-32
2022/12/23 12:59:27;;;;;;;10.30;5.80;;;;;;;5.99;100.00;98421.38;99304;1363;22725;-33
2022/12/23 13:02:25;;;;;;;10.20;7.40;;;;;;;5.95;100.00;98419.55;99044;1367;22603;-31
2022/12/23 13:05:15;;;;;;;16.60;9.60;;;;;;;6.04;100.00;98417.52;99037;1363;22737;-32
2022/12/23 13:08:12;;;;;;;10.90;6.50;;;;;;;5.90;100.00;98411.77;99103;1361;24856;-35
2022/12/23 13:10:43;;;;;;;16.20;8.80;;;;;;;5.94;100.00;98414.22;99098;1361;22912;-35